sensor_id;sensor_type;location;lat;lon;timestamp;P1;durP1;ratioP1;P2;durP2;ratioP2
66020;SDS011;52789;59.980;30.346;2022-09-16T00:01:08;5.33;;;4.40;;
66020;SDS011;52789;59.980;30.346;2022-09-16T00:03:41;5.33;;;4.30;;
66020;SDS011;52789;59.980;30.346;2022-09-16T00:06:27;12.07;;;4.40;;
66020;SDS011;52789;59.980;30.346;2022-09-16T00:08:55;7.70;;;4.77;;
66020;SDS011;52789;59.980;30.346;2022-09-16T00:11:23;9.30;;;4.13;;
66020;SDS011;52789;59.980;30.346;2022-09-16T00:13:49;8.77;;;4.20;;
66020;SDS011;52789;59.980;30.346;2022-09-16T00:16:19;7.00;;;4.00;;
66020;SDS011;52789;59.980;30.346;2022-09-16T00:18:53;5.07;;;4.33;;
66020;SDS011;52789;59.980;30.346;2022-09-16T00:21:20;7.47;;;5.00;;
66020;SDS011;52789;59.980;30.346;2022-09-16T00:23:46;7.00;;;5.00;;
66020;SDS011;52789;59.980;30.346;2022-09-16T00:26:11;8.47;;;4.43;;
66020;SDS011;52789;59.980;30.346;2022-09-16T00:28:37;6.70;;;4.93;;
66020;SDS011;52789;59.980;30.346;2022-09-16T00:31:02;9.80;;;6.30;;
66020;SDS011;52789;59.980;30.346;2022-09-16T00:33:28;6.97;;;4.83;;
66020;SDS011;52789;59.980;30.346;2022-09-16T00:36:04;7.80;;;5.60;;
66020;SDS011;52789;59.980;30.346;2022-09-16T00:38:30;6.67;;;4.93;;
66020;SDS011;52789;59.980;30.346;2022-09-16T00:40:56;11.23;;;4.93;;
66020;SDS011;52789;59.980;30.346;2022-09-16T00:43:22;7.80;;;4.07;;
66020;SDS011;52789;59.980;30.346;2022-09-16T00:45:48;6.03;;;4.30;;
66020;SDS011;52789;59.980;30.346;2022-09-16T00:48:21;7.70;;;5.03;;
66020;SDS011;52789;59.980;30.346;2022-09-16T00:50:51;9.13;;;5.17;;
66020;SDS011;52789;59.980;30.346;2022-09-16T00:53:24;5.60;;;4.63;;
66020;SDS011;52789;59.980;30.346;2022-09-16T00:55:53;6.63;;;4.93;;
66020;SDS011;52789;59.980;30.346;2022-09-16T01:01:00;6.03;;;4.33;;
66020;SDS011;52789;59.980;30.346;2022-09-16T01:03:30;4.67;;;4.03;;
66020;SDS011;52789;59.980;30.346;2022-09-16T01:06:01;7.00;;;4.60;;
66020;SDS011;52789;59.980;30.346;2022-09-16T01:08:27;4.90;;;4.30;;
66020;SDS011;52789;59.980;30.346;2022-09-16T01:10:53;6.37;;;4.60;;
66020;SDS011;52789;59.980;30.346;2022-09-16T01:13:18;6.67;;;4.60;;
66020;SDS011;52789;59.980;30.346;2022-09-16T01:15:52;8.87;;;4.60;;
66020;SDS011;52789;59.980;30.346;2022-09-16T01:38:41;8.53;;;5.80;;
66020;SDS011;52789;59.980;30.346;2022-09-16T01:46:23;8.20;;;4.28;;
66020;SDS011;52789;59.980;30.346;2022-09-16T01:48:56;4.60;;;4.07;;
66020;SDS011;52789;59.980;30.346;2022-09-16T01:56:38;4.23;;;3.67;;
66020;SDS011;52789;59.980;30.346;2022-09-16T01:59:07;14.00;;;4.87;;
66020;SDS011;52789;59.980;30.346;2022-09-16T02:01:40;5.67;;;3.57;;
66020;SDS011;52789;59.980;30.346;2022-09-16T02:04:23;4.67;;;3.63;;
66020;SDS011;52789;59.980;30.346;2022-09-16T02:06:54;5.03;;;4.03;;
66020;SDS011;52789;59.980;30.346;2022-09-16T02:09:49;6.03;;;3.73;;
66020;SDS011;52789;59.980;30.346;2022-09-16T02:12:20;4.23;;;3.80;;
66020;SDS011;52789;59.980;30.346;2022-09-16T02:14:50;5.37;;;4.10;;
66020;SDS011;52789;59.980;30.346;2022-09-16T02:17:20;5.27;;;4.00;;
66020;SDS011;52789;59.980;30.346;2022-09-16T02:19:56;9.07;;;4.07;;
66020;SDS011;52789;59.980;30.346;2022-09-16T02:22:30;6.82;;;4.43;;
66020;SDS011;52789;59.980;30.346;2022-09-16T02:24:59;5.57;;;3.70;;
66020;SDS011;52789;59.980;30.346;2022-09-16T02:27:27;5.10;;;4.10;;
66020;SDS011;52789;59.980;30.346;2022-09-16T02:29:57;7.22;;;3.88;;
66020;SDS011;52789;59.980;30.346;2022-09-16T02:32:30;4.60;;;3.90;;
66020;SDS011;52789;59.980;30.346;2022-09-16T02:34:59;3.87;;;3.47;;
66020;SDS011;52789;59.980;30.346;2022-09-16T02:37:33;4.80;;;4.40;;
66020;SDS011;52789;59.980;30.346;2022-09-16T02:40:02;6.90;;;4.03;;
66020;SDS011;52789;59.980;30.346;2022-09-16T02:42:32;5.00;;;3.73;;
66020;SDS011;52789;59.980;30.346;2022-09-16T02:44:58;6.93;;;4.27;;
66020;SDS011;52789;59.980;30.346;2022-09-16T02:50:08;4.60;;;4.17;;
66020;SDS011;52789;59.980;30.346;2022-09-16T02:52:45;5.23;;;3.30;;
66020;SDS011;52789;59.980;30.346;2022-09-16T02:58:13;4.50;;;3.73;;
66020;SDS011;52789;59.980;30.346;2022-09-16T03:00:40;3.93;;;3.17;;
66020;SDS011;52789;59.980;30.346;2022-09-16T03:03:10;5.60;;;3.30;;
66020;SDS011;52789;59.980;30.346;2022-09-16T03:05:36;8.33;;;2.93;;
66020;SDS011;52789;59.980;30.346;2022-09-16T03:08:28;8.17;;;3.30;;
66020;SDS011;52789;59.980;30.346;2022-09-16T03:10:54;4.50;;;2.93;;
66020;SDS011;52789;59.980;30.346;2022-09-16T03:13:27;6.93;;;4.03;;
66020;SDS011;52789;59.980;30.346;2022-09-16T03:16:48;6.38;;;4.07;;
66020;SDS011;52789;59.980;30.346;2022-09-16T03:27:13;4.33;;;3.03;;
66020;SDS011;52789;59.980;30.346;2022-09-16T03:29:48;3.77;;;3.27;;
66020;SDS011;52789;59.980;30.346;2022-09-16T03:32:22;10.30;;;3.90;;
66020;SDS011;52789;59.980;30.346;2022-09-16T03:34:58;5.50;;;3.37;;
66020;SDS011;52789;59.980;30.346;2022-09-16T03:37:28;5.63;;;3.80;;
66020;SDS011;52789;59.980;30.346;2022-09-16T03:40:02;4.20;;;3.60;;
66020;SDS011;52789;59.980;30.346;2022-09-16T03:42:33;4.90;;;3.60;;
66020;SDS011;52789;59.980;30.346;2022-09-16T03:45:02;6.10;;;3.50;;
66020;SDS011;52789;59.980;30.346;2022-09-16T03:47:28;3.97;;;3.60;;
66020;SDS011;52789;59.980;30.346;2022-09-16T03:49:53;3.90;;;3.43;;
66020;SDS011;52789;59.980;30.346;2022-09-16T03:52:20;5.77;;;3.60;;
66020;SDS011;52789;59.980;30.346;2022-09-16T03:54:46;6.33;;;3.53;;
66020;SDS011;52789;59.980;30.346;2022-09-16T03:57:11;5.03;;;3.90;;
66020;SDS011;52789;59.980;30.346;2022-09-16T03:59:39;5.60;;;3.90;;
66020;SDS011;52789;59.980;30.346;2022-09-16T04:02:06;6.60;;;4.33;;
66020;SDS011;52789;59.980;30.346;2022-09-16T04:04:32;5.50;;;4.00;;
66020;SDS011;52789;59.980;30.346;2022-09-16T04:06:57;7.37;;;3.80;;
66020;SDS011;52789;59.980;30.346;2022-09-16T04:09:32;4.30;;;3.03;;
66020;SDS011;52789;59.980;30.346;2022-09-16T04:12:03;4.00;;;3.60;;
66020;SDS011;52789;59.980;30.346;2022-09-16T04:14:36;4.93;;;3.20;;
66020;SDS011;52789;59.980;30.346;2022-09-16T04:20:09;9.40;;;3.58;;
66020;SDS011;52789;59.980;30.346;2022-09-16T04:26:30;6.17;;;3.50;;
66020;SDS011;52789;59.980;30.346;2022-09-16T04:28:57;4.30;;;3.40;;
66020;SDS011;52789;59.980;30.346;2022-09-16T04:31:23;6.27;;;3.77;;
66020;SDS011;52789;59.980;30.346;2022-09-16T04:33:48;5.30;;;3.93;;
66020;SDS011;52789;59.980;30.346;2022-09-16T04:36:15;4.10;;;3.70;;
66020;SDS011;52789;59.980;30.346;2022-09-16T04:38:43;4.93;;;3.80;;
66020;SDS011;52789;59.980;30.346;2022-09-16T04:41:17;4.63;;;3.13;;
66020;SDS011;52789;59.980;30.346;2022-09-16T04:43:45;6.37;;;3.87;;
66020;SDS011;52789;59.980;30.346;2022-09-16T04:46:11;5.10;;;4.17;;
66020;SDS011;52789;59.980;30.346;2022-09-16T04:48:37;6.60;;;4.17;;
66020;SDS011;52789;59.980;30.346;2022-09-16T04:51:04;6.53;;;3.90;;
66020;SDS011;52789;59.980;30.346;2022-09-16T04:53:32;10.17;;;4.37;;
66020;SDS011;52789;59.980;30.346;2022-09-16T04:56:01;5.60;;;4.17;;
66020;SDS011;52789;59.980;30.346;2022-09-16T04:58:28;5.43;;;4.63;;
66020;SDS011;52789;59.980;30.346;2022-09-16T05:00:54;8.00;;;4.00;;
66020;SDS011;52789;59.980;30.346;2022-09-16T05:03:19;6.10;;;3.30;;
66020;SDS011;52789;59.980;30.346;2022-09-16T05:05:45;4.37;;;3.40;;
66020;SDS011;52789;59.980;30.346;2022-09-16T05:08:10;4.53;;;3.57;;
66020;SDS011;52789;59.980;30.346;2022-09-16T05:10:36;4.63;;;3.67;;
66020;SDS011;52789;59.980;30.346;2022-09-16T05:13:02;6.70;;;3.77;;
66020;SDS011;52789;59.980;30.346;2022-09-16T05:15:27;5.13;;;3.57;;
66020;SDS011;52789;59.980;30.346;2022-09-16T05:17:52;5.07;;;3.87;;
66020;SDS011;52789;59.980;30.346;2022-09-16T05:20:19;7.20;;;2.73;;
66020;SDS011;52789;59.980;30.346;2022-09-16T05:22:44;3.57;;;3.23;;
66020;SDS011;52789;59.980;30.346;2022-09-16T05:25:13;4.13;;;3.47;;
66020;SDS011;52789;59.980;30.346;2022-09-16T05:27:38;3.43;;;3.13;;
66020;SDS011;52789;59.980;30.346;2022-09-16T05:30:04;4.27;;;2.90;;
66020;SDS011;52789;59.980;30.346;2022-09-16T05:32:33;4.97;;;3.27;;
66020;SDS011;52789;59.980;30.346;2022-09-16T05:34:59;4.83;;;3.07;;
66020;SDS011;52789;59.980;30.346;2022-09-16T05:37:25;3.10;;;2.77;;
66020;SDS011;52789;59.980;30.346;2022-09-16T05:39:54;4.27;;;3.07;;
66020;SDS011;52789;59.980;30.346;2022-09-16T05:42:19;3.58;;;2.42;;
66020;SDS011;52789;59.980;30.346;2022-09-16T05:44:46;2.73;;;2.37;;
66020;SDS011;52789;59.980;30.346;2022-09-16T05:47:11;5.13;;;3.27;;
66020;SDS011;52789;59.980;30.346;2022-09-16T05:49:37;4.30;;;2.60;;
66020;SDS011;52789;59.980;30.346;2022-09-16T05:52:02;4.17;;;3.20;;
66020;SDS011;52789;59.980;30.346;2022-09-16T05:54:28;7.37;;;3.00;;
66020;SDS011;52789;59.980;30.346;2022-09-16T05:56:55;4.33;;;3.10;;
66020;SDS011;52789;59.980;30.346;2022-09-16T05:59:21;3.97;;;3.17;;
66020;SDS011;52789;59.980;30.346;2022-09-16T06:01:49;6.05;;;3.13;;
66020;SDS011;52789;59.980;30.346;2022-09-16T06:04:15;5.30;;;3.90;;
66020;SDS011;52789;59.980;30.346;2022-09-16T06:06:42;7.90;;;3.23;;
66020;SDS011;52789;59.980;30.346;2022-09-16T06:09:21;3.70;;;3.37;;
66020;SDS011;52789;59.980;30.346;2022-09-16T06:11:52;4.97;;;3.30;;
66020;SDS011;52789;59.980;30.346;2022-09-16T06:14:26;4.80;;;3.33;;
66020;SDS011;52789;59.980;30.346;2022-09-16T06:16:52;5.67;;;3.20;;
66020;SDS011;52789;59.980;30.346;2022-09-16T06:19:18;4.00;;;3.47;;
66020;SDS011;52789;59.980;30.346;2022-09-16T06:21:44;7.30;;;3.33;;
66020;SDS011;52789;59.980;30.346;2022-09-16T06:24:12;4.17;;;3.10;;
66020;SDS011;52789;59.980;30.346;2022-09-16T06:27:21;4.83;;;3.33;;
66020;SDS011;52789;59.980;30.346;2022-09-16T06:29:47;4.57;;;3.07;;
66020;SDS011;52789;59.980;30.346;2022-09-16T06:32:29;7.33;;;3.13;;
66020;SDS011;52789;59.980;30.346;2022-09-16T06:37:48;7.40;;;3.40;;
66020;SDS011;52789;59.980;30.346;2022-09-16T06:40:17;4.53;;;2.70;;
66020;SDS011;52789;59.980;30.346;2022-09-16T06:42:57;3.83;;;2.93;;
66020;SDS011;52789;59.980;30.346;2022-09-16T06:45:23;3.90;;;2.70;;
66020;SDS011;52789;59.980;30.346;2022-09-16T06:55:44;3.90;;;2.70;;
66020;SDS011;52789;59.980;30.346;2022-09-16T06:58:12;4.30;;;3.43;;
66020;SDS011;52789;59.980;30.346;2022-09-16T07:00:38;7.97;;;2.87;;
66020;SDS011;52789;59.980;30.346;2022-09-16T07:03:06;3.83;;;2.72;;
66020;SDS011;52789;59.980;30.346;2022-09-16T07:05:35;2.60;;;2.35;;
66020;SDS011;52789;59.980;30.346;2022-09-16T07:19:05;5.67;;;3.60;;
66020;SDS011;52789;59.980;30.346;2022-09-16T07:21:34;4.53;;;3.22;;
66020;SDS011;52789;59.980;30.346;2022-09-16T07:24:02;3.43;;;2.80;;
66020;SDS011;52789;59.980;30.346;2022-09-16T07:26:41;5.95;;;3.05;;
66020;SDS011;52789;59.980;30.346;2022-09-16T07:29:11;5.80;;;3.07;;
66020;SDS011;52789;59.980;30.346;2022-09-16T07:31:42;6.53;;;2.80;;
66020;SDS011;52789;59.980;30.346;2022-09-16T07:34:09;4.87;;;2.53;;
66020;SDS011;52789;59.980;30.346;2022-09-16T07:40:32;8.17;;;3.17;;
66020;SDS011;52789;59.980;30.346;2022-09-16T07:43:40;4.27;;;3.10;;
66020;SDS011;52789;59.980;30.346;2022-09-16T07:49:45;4.43;;;2.77;;
66020;SDS011;52789;59.980;30.346;2022-09-16T07:52:12;7.97;;;3.23;;
66020;SDS011;52789;59.980;30.346;2022-09-16T07:54:37;7.20;;;3.63;;
66020;SDS011;52789;59.980;30.346;2022-09-16T07:57:03;4.83;;;4.03;;
66020;SDS011;52789;59.980;30.346;2022-09-16T07:59:28;19.23;;;3.10;;
66020;SDS011;52789;59.980;30.346;2022-09-16T08:01:54;4.27;;;2.60;;
66020;SDS011;52789;59.980;30.346;2022-09-16T08:04:19;6.37;;;3.03;;
66020;SDS011;52789;59.980;30.346;2022-09-16T08:06:45;6.20;;;3.00;;
66020;SDS011;52789;59.980;30.346;2022-09-16T08:09:11;4.13;;;3.20;;
66020;SDS011;52789;59.980;30.346;2022-09-16T08:11:39;5.55;;;3.10;;
66020;SDS011;52789;59.980;30.346;2022-09-16T08:14:04;4.27;;;3.30;;
66020;SDS011;52789;59.980;30.346;2022-09-16T08:16:30;5.70;;;3.40;;
66020;SDS011;52789;59.980;30.346;2022-09-16T08:18:56;6.77;;;2.97;;
66020;SDS011;52789;59.980;30.346;2022-09-16T08:27:28;3.80;;;2.47;;
66020;SDS011;52789;59.980;30.346;2022-09-16T08:50:50;3.67;;;2.67;;
66020;SDS011;52789;59.980;30.346;2022-09-16T08:56:42;2.43;;;2.07;;
66020;SDS011;52789;59.980;30.346;2022-09-16T08:59:14;4.87;;;2.03;;
66020;SDS011;52789;59.980;30.346;2022-09-16T09:04:48;5.27;;;2.80;;
66020;SDS011;52789;59.980;30.346;2022-09-16T09:41:51;5.03;;;2.80;;
66020;SDS011;52789;59.980;30.346;2022-09-16T09:44:32;4.17;;;2.33;;
66020;SDS011;52789;59.980;30.346;2022-09-16T10:24:32;7.50;;;3.83;;
66020;SDS011;52789;59.980;30.346;2022-09-16T10:29:47;8.20;;;4.22;;
66020;SDS011;52789;59.980;30.346;2022-09-16T10:32:31;6.43;;;3.43;;
66020;SDS011;52789;59.980;30.346;2022-09-16T10:35:05;7.57;;;3.33;;
66020;SDS011;52789;59.980;30.346;2022-09-16T10:37:32;5.60;;;3.57;;
66020;SDS011;52789;59.980;30.346;2022-09-16T10:39:57;8.63;;;2.63;;
66020;SDS011;52789;59.980;30.346;2022-09-16T10:42:44;5.80;;;3.03;;
66020;SDS011;52789;59.980;30.346;2022-09-16T10:45:33;5.30;;;2.53;;
66020;SDS011;52789;59.980;30.346;2022-09-16T10:59:12;3.40;;;2.00;;
66020;SDS011;52789;59.980;30.346;2022-09-16T11:28:38;8.07;;;2.00;;
66020;SDS011;52789;59.980;30.346;2022-09-16T11:38:07;8.47;;;2.40;;
66020;SDS011;52789;59.980;30.346;2022-09-16T12:12:03;8.00;;;2.00;;
66020;SDS011;52789;59.980;30.346;2022-09-16T12:39:07;5.60;;;1.80;;
66020;SDS011;52789;59.980;30.346;2022-09-16T13:05:23;3.07;;;2.07;;
66020;SDS011;52789;59.980;30.346;2022-09-16T13:11:16;2.17;;;1.90;;
66020;SDS011;52789;59.980;30.346;2022-09-16T13:13:48;3.17;;;2.40;;
66020;SDS011;52789;59.980;30.346;2022-09-16T13:16:26;4.57;;;1.90;;
66020;SDS011;52789;59.980;30.346;2022-09-16T13:19:50;4.20;;;2.10;;
66020;SDS011;52789;59.980;30.346;2022-09-16T13:24:52;5.23;;;1.20;;
66020;SDS011;52789;59.980;30.346;2022-09-16T13:29:47;2.33;;;1.60;;
66020;SDS011;52789;59.980;30.346;2022-09-16T13:32:26;2.70;;;1.80;;
66020;SDS011;52789;59.980;30.346;2022-09-16T13:38:35;5.00;;;2.03;;
66020;SDS011;52789;59.980;30.346;2022-09-16T13:44:53;3.00;;;1.60;;
66020;SDS011;52789;59.980;30.346;2022-09-16T13:47:30;2.67;;;1.50;;
66020;SDS011;52789;59.980;30.346;2022-09-16T13:50:13;2.73;;;1.57;;
66020;SDS011;52789;59.980;30.346;2022-09-16T13:52:41;2.95;;;1.83;;
66020;SDS011;52789;59.980;30.346;2022-09-16T14:15:42;2.43;;;1.40;;
66020;SDS011;52789;59.980;30.346;2022-09-16T14:18:11;3.87;;;2.30;;
66020;SDS011;52789;59.980;30.346;2022-09-16T14:20:48;4.13;;;1.90;;
66020;SDS011;52789;59.980;30.346;2022-09-16T14:23:22;3.00;;;2.23;;
66020;SDS011;52789;59.980;30.346;2022-09-16T14:25:49;4.18;;;2.00;;
66020;SDS011;52789;59.980;30.346;2022-09-16T14:28:22;3.17;;;2.27;;
66020;SDS011;52789;59.980;30.346;2022-09-16T14:33:27;4.07;;;1.60;;
66020;SDS011;52789;59.980;30.346;2022-09-16T14:35:55;1.90;;;1.27;;
66020;SDS011;52789;59.980;30.346;2022-09-16T14:38:45;2.90;;;1.10;;
66020;SDS011;52789;59.980;30.346;2022-09-16T14:41:18;4.17;;;1.20;;
66020;SDS011;52789;59.980;30.346;2022-09-16T14:46:55;3.73;;;1.50;;
66020;SDS011;52789;59.980;30.346;2022-09-16T14:49:48;9.27;;;2.07;;
66020;SDS011;52789;59.980;30.346;2022-09-16T14:52:21;3.10;;;1.73;;
66020;SDS011;52789;59.980;30.346;2022-09-16T14:54:50;2.47;;;1.83;;
66020;SDS011;52789;59.980;30.346;2022-09-16T14:57:18;2.50;;;2.30;;
66020;SDS011;52789;59.980;30.346;2022-09-16T14:59:49;3.13;;;2.03;;
66020;SDS011;52789;59.980;30.346;2022-09-16T15:19:40;2.30;;;2.10;;
66020;SDS011;52789;59.980;30.346;2022-09-16T15:22:28;2.50;;;1.90;;
66020;SDS011;52789;59.980;30.346;2022-09-16T15:24:54;2.57;;;1.77;;
66020;SDS011;52789;59.980;30.346;2022-09-16T15:27:29;2.53;;;1.80;;
66020;SDS011;52789;59.980;30.346;2022-09-16T15:29:59;4.77;;;2.33;;
66020;SDS011;52789;59.980;30.346;2022-09-16T15:32:30;4.47;;;3.03;;
66020;SDS011;52789;59.980;30.346;2022-09-16T15:35:01;4.23;;;2.43;;
66020;SDS011;52789;59.980;30.346;2022-09-16T15:40:20;3.27;;;2.97;;
66020;SDS011;52789;59.980;30.346;2022-09-16T15:43:00;3.80;;;2.13;;
66020;SDS011;52789;59.980;30.346;2022-09-16T15:45:43;2.67;;;2.10;;
66020;SDS011;52789;59.980;30.346;2022-09-16T15:48:20;3.57;;;2.20;;
66020;SDS011;52789;59.980;30.346;2022-09-16T15:50:50;2.45;;;2.20;;
66020;SDS011;52789;59.980;30.346;2022-09-16T15:58:40;4.50;;;2.70;;
66020;SDS011;52789;59.980;30.346;2022-09-16T16:03:59;3.83;;;2.80;;
66020;SDS011;52789;59.980;30.346;2022-09-16T16:09:40;4.60;;;2.97;;
66020;SDS011;52789;59.980;30.346;2022-09-16T16:12:13;5.00;;;2.53;;
66020;SDS011;52789;59.980;30.346;2022-09-16T16:18:51;10.90;;;3.80;;
66020;SDS011;52789;59.980;30.346;2022-09-16T16:22:02;4.27;;;2.80;;
66020;SDS011;52789;59.980;30.346;2022-09-16T16:32:12;5.60;;;3.37;;
66020;SDS011;52789;59.980;30.346;2022-09-16T16:39:15;4.30;;;3.20;;
66020;SDS011;52789;59.980;30.346;2022-09-16T16:41:40;6.07;;;4.23;;
66020;SDS011;52789;59.980;30.346;2022-09-16T16:44:06;4.10;;;3.23;;
66020;SDS011;52789;59.980;30.346;2022-09-16T16:46:31;3.37;;;2.43;;
66020;SDS011;52789;59.980;30.346;2022-09-16T16:48:57;7.30;;;3.37;;
66020;SDS011;52789;59.980;30.346;2022-09-16T16:51:48;4.50;;;2.90;;
66020;SDS011;52789;59.980;30.346;2022-09-16T16:54:19;3.33;;;2.83;;
66020;SDS011;52789;59.980;30.346;2022-09-16T16:56:45;3.73;;;2.77;;
66020;SDS011;52789;59.980;30.346;2022-09-16T16:59:12;6.20;;;2.93;;
66020;SDS011;52789;59.980;30.346;2022-09-16T17:01:39;3.83;;;2.83;;
66020;SDS011;52789;59.980;30.346;2022-09-16T17:04:10;5.80;;;2.63;;
66020;SDS011;52789;59.980;30.346;2022-09-16T17:07:05;5.80;;;2.83;;
66020;SDS011;52789;59.980;30.346;2022-09-16T17:09:44;2.87;;;2.43;;
66020;SDS011;52789;59.980;30.346;2022-09-16T17:12:18;4.30;;;2.95;;
66020;SDS011;52789;59.980;30.346;2022-09-16T17:14:47;3.57;;;2.87;;
66020;SDS011;52789;59.980;30.346;2022-09-16T17:17:12;4.45;;;2.92;;
66020;SDS011;52789;59.980;30.346;2022-09-16T17:19:38;3.77;;;2.93;;
66020;SDS011;52789;59.980;30.346;2022-09-16T17:22:04;5.83;;;3.10;;
66020;SDS011;52789;59.980;30.346;2022-09-16T17:24:29;4.10;;;2.10;;
66020;SDS011;52789;59.980;30.346;2022-09-16T17:26:54;4.77;;;3.33;;
66020;SDS011;52789;59.980;30.346;2022-09-16T17:29:20;4.37;;;3.10;;
66020;SDS011;52789;59.980;30.346;2022-09-16T17:31:46;4.93;;;3.20;;
66020;SDS011;52789;59.980;30.346;2022-09-16T17:34:24;5.53;;;4.00;;
66020;SDS011;52789;59.980;30.346;2022-09-16T17:36:50;5.23;;;3.10;;
66020;SDS011;52789;59.980;30.346;2022-09-16T17:39:16;4.10;;;3.07;;
66020;SDS011;52789;59.980;30.346;2022-09-16T17:41:43;3.33;;;2.90;;
66020;SDS011;52789;59.980;30.346;2022-09-16T17:44:11;5.63;;;2.73;;
66020;SDS011;52789;59.980;30.346;2022-09-16T17:46:38;3.87;;;3.50;;
66020;SDS011;52789;59.980;30.346;2022-09-16T17:49:06;8.53;;;4.50;;
66020;SDS011;52789;59.980;30.346;2022-09-16T17:51:37;5.63;;;3.70;;
66020;SDS011;52789;59.980;30.346;2022-09-16T17:54:03;4.83;;;3.27;;
66020;SDS011;52789;59.980;30.346;2022-09-16T17:56:28;5.47;;;3.93;;
66020;SDS011;52789;59.980;30.346;2022-09-16T17:58:54;4.87;;;3.23;;
66020;SDS011;52789;59.980;30.346;2022-09-16T18:01:21;7.17;;;3.67;;
66020;SDS011;52789;59.980;30.346;2022-09-16T18:03:49;4.50;;;3.45;;
66020;SDS011;52789;59.980;30.346;2022-09-16T18:09:10;10.17;;;5.33;;
66020;SDS011;52789;59.980;30.346;2022-09-16T18:11:37;5.40;;;4.23;;
66020;SDS011;52789;59.980;30.346;2022-09-16T18:14:04;5.90;;;5.30;;
66020;SDS011;52789;59.980;30.346;2022-09-16T18:16:37;9.13;;;5.37;;
66020;SDS011;52789;59.980;30.346;2022-09-16T18:19:03;6.73;;;4.43;;
66020;SDS011;52789;59.980;30.346;2022-09-16T18:21:30;8.13;;;4.70;;
66020;SDS011;52789;59.980;30.346;2022-09-16T18:23:59;7.00;;;5.17;;
66020;SDS011;52789;59.980;30.346;2022-09-16T18:26:29;5.47;;;4.03;;
66020;SDS011;52789;59.980;30.346;2022-09-16T18:28:57;4.05;;;3.20;;
66020;SDS011;52789;59.980;30.346;2022-09-16T18:31:26;6.73;;;4.10;;
66020;SDS011;52789;59.980;30.346;2022-09-16T18:33:55;16.13;;;10.45;;
66020;SDS011;52789;59.980;30.346;2022-09-16T18:36:21;10.97;;;7.57;;
66020;SDS011;52789;59.980;30.346;2022-09-16T18:38:53;4.20;;;3.55;;
66020;SDS011;52789;59.980;30.346;2022-09-16T18:41:21;5.00;;;3.83;;
66020;SDS011;52789;59.980;30.346;2022-09-16T18:43:53;7.97;;;4.38;;
66020;SDS011;52789;59.980;30.346;2022-09-16T18:46:21;6.77;;;5.50;;
66020;SDS011;52789;59.980;30.346;2022-09-16T18:48:49;6.28;;;3.58;;
66020;SDS011;52789;59.980;30.346;2022-09-16T18:53:45;5.60;;;4.33;;
66020;SDS011;52789;59.980;30.346;2022-09-16T18:56:12;4.50;;;3.87;;
66020;SDS011;52789;59.980;30.346;2022-09-16T18:58:39;6.47;;;3.70;;
66020;SDS011;52789;59.980;30.346;2022-09-16T19:01:27;5.77;;;4.10;;
66020;SDS011;52789;59.980;30.346;2022-09-16T19:03:53;5.73;;;3.77;;
66020;SDS011;52789;59.980;30.346;2022-09-16T19:06:22;5.23;;;3.60;;
66020;SDS011;52789;59.980;30.346;2022-09-16T19:08:51;7.80;;;5.07;;
66020;SDS011;52789;59.980;30.346;2022-09-16T19:11:17;7.20;;;4.30;;
66020;SDS011;52789;59.980;30.346;2022-09-16T19:13:42;4.07;;;3.67;;
66020;SDS011;52789;59.980;30.346;2022-09-16T19:16:09;5.33;;;3.50;;
66020;SDS011;52789;59.980;30.346;2022-09-16T19:18:38;5.17;;;3.30;;
66020;SDS011;52789;59.980;30.346;2022-09-16T19:21:05;5.53;;;3.83;;
66020;SDS011;52789;59.980;30.346;2022-09-16T19:23:36;4.37;;;3.83;;
66020;SDS011;52789;59.980;30.346;2022-09-16T19:26:02;5.23;;;3.27;;
66020;SDS011;52789;59.980;30.346;2022-09-16T19:28:32;3.57;;;3.20;;
66020;SDS011;52789;59.980;30.346;2022-09-16T19:33:29;4.67;;;2.93;;
66020;SDS011;52789;59.980;30.346;2022-09-16T19:35:56;8.93;;;3.57;;
66020;SDS011;52789;59.980;30.346;2022-09-16T19:38:22;5.37;;;3.37;;
66020;SDS011;52789;59.980;30.346;2022-09-16T19:40:49;3.97;;;3.10;;
66020;SDS011;52789;59.980;30.346;2022-09-16T19:43:15;4.30;;;3.43;;
66020;SDS011;52789;59.980;30.346;2022-09-16T19:45:41;5.17;;;2.87;;
66020;SDS011;52789;59.980;30.346;2022-09-16T19:48:07;5.23;;;3.40;;
66020;SDS011;52789;59.980;30.346;2022-09-16T19:50:32;6.03;;;3.17;;
66020;SDS011;52789;59.980;30.346;2022-09-16T19:52:58;3.57;;;3.27;;
66020;SDS011;52789;59.980;30.346;2022-09-16T19:55:26;5.00;;;3.33;;
66020;SDS011;52789;59.980;30.346;2022-09-16T19:58:01;5.23;;;2.97;;
66020;SDS011;52789;59.980;30.346;2022-09-16T20:00:26;4.37;;;2.80;;
66020;SDS011;52789;59.980;30.346;2022-09-16T20:02:52;6.80;;;3.00;;
66020;SDS011;52789;59.980;30.346;2022-09-16T20:05:17;3.90;;;2.87;;
66020;SDS011;52789;59.980;30.346;2022-09-16T20:07:43;3.77;;;2.77;;
66020;SDS011;52789;59.980;30.346;2022-09-16T20:10:08;4.57;;;2.70;;
66020;SDS011;52789;59.980;30.346;2022-09-16T20:12:35;2.93;;;2.43;;
66020;SDS011;52789;59.980;30.346;2022-09-16T20:15:03;2.80;;;2.47;;
66020;SDS011;52789;59.980;30.346;2022-09-16T20:17:29;3.42;;;2.75;;
66020;SDS011;52789;59.980;30.346;2022-09-16T20:19:54;3.03;;;2.80;;
66020;SDS011;52789;59.980;30.346;2022-09-16T20:22:20;4.60;;;2.73;;
66020;SDS011;52789;59.980;30.346;2022-09-16T20:24:45;4.77;;;4.00;;
66020;SDS011;52789;59.980;30.346;2022-09-16T20:27:11;4.37;;;3.10;;
66020;SDS011;52789;59.980;30.346;2022-09-16T20:29:36;4.80;;;3.07;;
66020;SDS011;52789;59.980;30.346;2022-09-16T20:32:01;3.47;;;2.80;;
66020;SDS011;52789;59.980;30.346;2022-09-16T20:34:27;6.53;;;3.20;;
66020;SDS011;52789;59.980;30.346;2022-09-16T20:36:52;4.17;;;3.00;;
66020;SDS011;52789;59.980;30.346;2022-09-16T20:39:18;3.40;;;3.10;;
66020;SDS011;52789;59.980;30.346;2022-09-16T20:41:43;5.87;;;2.67;;
66020;SDS011;52789;59.980;30.346;2022-09-16T20:44:13;7.37;;;3.27;;
66020;SDS011;52789;59.980;30.346;2022-09-16T20:46:40;4.40;;;3.13;;
66020;SDS011;52789;59.980;30.346;2022-09-16T20:49:06;5.60;;;3.23;;
66020;SDS011;52789;59.980;30.346;2022-09-16T20:51:34;4.67;;;2.70;;
66020;SDS011;52789;59.980;30.346;2022-09-16T20:54:01;4.80;;;2.90;;
66020;SDS011;52789;59.980;30.346;2022-09-16T20:56:32;3.33;;;2.87;;
66020;SDS011;52789;59.980;30.346;2022-09-16T20:58:59;2.87;;;2.60;;
66020;SDS011;52789;59.980;30.346;2022-09-16T21:01:27;4.93;;;2.83;;
66020;SDS011;52789;59.980;30.346;2022-09-16T21:04:03;4.67;;;3.50;;
66020;SDS011;52789;59.980;30.346;2022-09-16T21:06:31;3.10;;;2.33;;
66020;SDS011;52789;59.980;30.346;2022-09-16T21:08:59;3.38;;;2.47;;
66020;SDS011;52789;59.980;30.346;2022-09-16T21:11:27;3.93;;;2.40;;
66020;SDS011;52789;59.980;30.346;2022-09-16T21:13:55;4.93;;;2.57;;
66020;SDS011;52789;59.980;30.346;2022-09-16T21:16:25;5.72;;;2.80;;
66020;SDS011;52789;59.980;30.346;2022-09-16T21:18:54;4.07;;;3.10;;
66020;SDS011;52789;59.980;30.346;2022-09-16T21:21:21;5.67;;;3.00;;
66020;SDS011;52789;59.980;30.346;2022-09-16T21:23:48;6.72;;;3.40;;
66020;SDS011;52789;59.980;30.346;2022-09-16T21:26:20;3.60;;;3.07;;
66020;SDS011;52789;59.980;30.346;2022-09-16T21:28:56;3.43;;;2.63;;
66020;SDS011;52789;59.980;30.346;2022-09-16T21:31:29;3.43;;;3.10;;
66020;SDS011;52789;59.980;30.346;2022-09-16T21:34:02;6.40;;;2.83;;
66020;SDS011;52789;59.980;30.346;2022-09-16T21:36:31;8.87;;;3.43;;
66020;SDS011;52789;59.980;30.346;2022-09-16T21:38:59;3.33;;;2.97;;
66020;SDS011;52789;59.980;30.346;2022-09-16T21:41:25;3.23;;;2.87;;
66020;SDS011;52789;59.980;30.346;2022-09-16T21:43:51;4.10;;;2.80;;